Airfield :
LOGIN :

Register | Disclaimer

   EN    FR    IT 

 










Legend :    VFR   Marginal VFR   IFR   Intensive IFR   Very Intensive IFR
Visi :
Ceiling :
>= 8 km
>= 3000ft
5 to 8 km
1000 to 3000 ft
1500m to 5 km
500 to 1000 ft
800 to 1500m
200 to 500 ft
< 800m
< 200 ft
Symbols :   Thunderstorms  Fog  Heavy snow  Heavy precipitations  Wind > 20 kt
SIGMETs :     Misc.  Thunderstorms  Icing  Turbulence  Mountain Waves  Volcanic Ashes







- Airport Elevation : 665 ft
- IATA code : NOC


EIKN - Connaught / Knock- Ireland West

CURRENT METAR :
  • 161430Z 01006KT 320V040 9999 FEW016 BKN028 15/10 Q1025 NOSIG

EXPIRED METARs :
  • 161400Z VRB02KT 9999 FEW017 BKN028 15/10 Q1025 NOSIG
  • 161330Z 03004KT 360V060 9999 SCT016 BKN023 14/10 Q1026 NOSIG
  • 161300Z 03004KT 330V080 9999 SCT016 BKN028 14/10 Q1026 NOSIG
  • 161230Z 36003KT 9999 SCT016 BKN028 14/10 Q1026 NOSIG
  • 161200Z 01004KT 330V050 9999 SCT016 BKN024 13/10 Q1026 NOSIG

TAF TAF EIKN
Valid from the 16 at 12:00 until the 17 at 12:00 UTC


161100Z 1612/1712 36006KT 9999 FEW015 SCT025
BECMG 1621/1624 32005KT
BECMG 1703/1705 VRB03KT
PROB40
TEMPO 1703/1707 4000 BR SCT003
No reported NOTAMs for that airfield.



MET'MAP, your aeronautical weather chart ! - Copyright ORBIFLY December 2007 - Disclaimer

ORBIFLY MET'MAP TEAM :

Programming & Development : Alexandra Zaïnal
Concept & Development : Baudouin d'Aumeries
Co-Development & Prog : Marc-Olivier Méhu
Technical & hardware support : Manuel Goepfert

Contact : metmap@orbifly.com




SOURCES & CREDITS :

   NOAA